createdAt,value
2019-03-21T00:02:20.668Z,5.90
2019-03-21T00:04:50.743Z,5.80
2019-03-21T00:07:20.160Z,5.90
2019-03-21T00:10:12.132Z,5.80
2019-03-21T00:12:41.622Z,5.80
2019-03-21T00:15:17.101Z,5.90
2019-03-21T00:17:48.796Z,5.90
2019-03-21T00:20:18.420Z,5.90
2019-03-21T00:22:47.823Z,5.90
2019-03-21T00:25:22.679Z,5.90
2019-03-21T00:27:52.196Z,5.90
2019-03-21T00:30:23.587Z,5.80
2019-03-21T00:32:54.904Z,5.80
2019-03-21T00:35:24.512Z,5.80
2019-03-21T00:37:53.989Z,5.70
2019-03-21T00:40:29.263Z,5.70
2019-03-21T00:43:01.102Z,5.60
2019-03-21T00:45:31.323Z,5.60
2019-03-21T00:48:01.644Z,5.60
2019-03-21T00:50:31.560Z,5.50
2019-03-21T00:53:00.928Z,5.40
2019-03-21T00:55:35.915Z,5.40
2019-03-21T00:58:05.423Z,5.30
2019-03-21T01:00:46.717Z,5.30
2019-03-21T01:03:16.332Z,5.20
2019-03-21T01:05:45.800Z,5.20
2019-03-21T01:08:15.234Z,5.10
2019-03-21T01:10:44.643Z,5.00
2019-03-21T01:13:14.274Z,5.00
2019-03-21T01:15:43.790Z,5.00
2019-03-21T01:18:13.229Z,5.10
2019-03-21T01:20:42.807Z,5.10
2019-03-21T01:23:12.260Z,5.10
2019-03-21T01:25:50.159Z,5.10
2019-03-21T01:28:19.534Z,5.10
2019-03-21T01:30:49.168Z,5.20
2019-03-21T01:33:18.594Z,5.10
2019-03-21T01:35:47.947Z,5.10
2019-03-21T01:38:17.632Z,5.10
2019-03-21T01:40:50.306Z,5.00
2019-03-21T01:43:20.391Z,5.00
2019-03-21T01:45:49.861Z,5.00
2019-03-21T01:48:20.523Z,5.00
2019-03-21T01:50:50.007Z,4.90
2019-03-21T01:53:20.278Z,4.80
2019-03-21T01:55:49.845Z,4.80
2019-03-21T01:58:19.204Z,4.90
2019-03-21T02:00:54.024Z,4.80
2019-03-21T02:03:23.432Z,4.70
2019-03-21T02:05:52.982Z,4.70
2019-03-21T02:08:22.334Z,4.60
2019-03-21T02:10:51.731Z,4.60
2019-03-21T02:13:21.193Z,4.50
2019-03-21T02:16:00.093Z,4.50
2019-03-21T02:18:28.430Z,4.50
2019-03-21T02:20:57.792Z,4.40
2019-03-21T02:23:27.218Z,4.40
2019-03-21T02:25:56.599Z,4.50
2019-03-21T02:28:25.957Z,4.50
2019-03-21T02:30:55.361Z,4.50
2019-03-21T02:33:32.659Z,4.50
2019-03-21T02:36:07.210Z,4.50
2019-03-21T02:38:36.602Z,4.50
2019-03-21T02:41:11.723Z,4.50
2019-03-21T02:43:41.160Z,4.50
2019-03-21T02:46:10.650Z,4.50
2019-03-21T02:48:40.052Z,4.50
2019-03-21T02:51:09.409Z,4.60
2019-03-21T02:53:38.876Z,4.60
2019-03-21T02:56:11.507Z,4.60
2019-03-21T02:58:40.952Z,4.60
2019-03-21T03:01:10.396Z,4.60
2019-03-21T03:03:39.805Z,4.50
2019-03-21T03:06:09.118Z,4.60
2019-03-21T03:08:38.692Z,4.60
2019-03-21T03:11:11.165Z,4.60
2019-03-21T03:13:42.163Z,4.60
2019-03-21T03:16:11.535Z,4.60
2019-03-21T03:18:40.929Z,4.60
2019-03-21T03:21:10.350Z,4.60
2019-03-21T03:23:39.713Z,4.60
2019-03-21T03:26:09.100Z,4.50
2019-03-21T03:28:43.690Z,4.40
2019-03-21T03:31:13.078Z,4.40
2019-03-21T03:33:42.439Z,4.30
2019-03-21T03:36:12.786Z,4.20
2019-03-21T03:38:42.194Z,4.10
2019-03-21T03:41:14.025Z,3.90
2019-03-21T03:43:43.345Z,3.80
2019-03-21T03:46:12.710Z,3.70
2019-03-21T03:48:42.323Z,3.60
2019-03-21T03:51:11.745Z,3.60
2019-03-21T03:53:42.617Z,3.50
2019-03-21T03:56:12.362Z,3.50
2019-03-21T03:58:47.560Z,3.50
2019-03-21T04:01:16.933Z,3.50
2019-03-21T04:03:46.392Z,3.40
2019-03-21T04:06:15.756Z,3.30
2019-03-21T04:08:45.152Z,3.30
2019-03-21T04:11:14.816Z,3.30
2019-03-21T04:13:44.197Z,3.20
2019-03-21T04:16:13.655Z,3.20
2019-03-21T04:18:43.084Z,3.20
2019-03-21T04:21:14.277Z,3.20
2019-03-21T04:23:43.651Z,3.20
2019-03-21T04:26:21.623Z,3.10
2019-03-21T04:28:51.166Z,3.10
2019-03-21T04:31:20.570Z,3.20
2019-03-21T04:33:52.662Z,3.20
2019-03-21T04:36:22.093Z,3.30
2019-03-21T04:38:51.479Z,3.40
2019-03-21T04:41:20.839Z,3.40
2019-03-21T04:43:50.218Z,3.50
2019-03-21T04:46:19.582Z,3.50
2019-03-21T04:48:48.994Z,3.50
2019-03-21T04:51:18.416Z,3.60
2019-03-21T04:53:47.756Z,3.50
2019-03-21T04:56:17.163Z,3.60
2019-03-21T04:58:46.529Z,3.60
2019-03-21T05:01:15.906Z,3.60
2019-03-21T05:03:45.277Z,3.60
2019-03-21T05:06:14.726Z,3.60
2019-03-21T05:08:44.113Z,3.60
2019-03-21T05:11:13.751Z,3.50
2019-03-21T05:13:43.116Z,3.40
2019-03-21T05:16:14.869Z,3.40
2019-03-21T05:18:52.142Z,3.40
2019-03-21T05:21:23.346Z,3.40
2019-03-21T05:23:52.742Z,3.30
2019-03-21T05:26:22.092Z,3.30
2019-03-21T05:28:51.501Z,3.20
2019-03-21T05:31:26.906Z,3.10
2019-03-21T05:33:56.283Z,3.00
2019-03-21T05:36:25.680Z,3.00
2019-03-21T05:38:55.097Z,3.00
2019-03-21T05:41:24.503Z,3.10
2019-03-21T05:43:57.307Z,3.10
2019-03-21T05:46:27.342Z,3.10
2019-03-21T05:48:56.832Z,3.10
2019-03-21T05:51:26.210Z,3.10
2019-03-21T05:53:55.573Z,3.10
2019-03-21T05:56:25.150Z,3.00
2019-03-21T05:58:54.530Z,3.00
2019-03-21T06:01:23.910Z,3.00
2019-03-21T06:03:53.539Z,3.00
2019-03-21T06:06:57.735Z,3.00
2019-03-21T06:09:27.254Z,3.10
2019-03-21T06:12:01.661Z,3.10
2019-03-21T06:14:42.883Z,3.10
2019-03-21T06:17:12.282Z,3.10
2019-03-21T06:19:50.651Z,3.10
2019-03-21T06:22:23.127Z,3.20
2019-03-21T06:24:58.486Z,3.20
2019-03-21T06:27:27.348Z,3.30
2019-03-21T06:29:56.720Z,3.40
2019-03-21T06:32:27.345Z,3.50
2019-03-21T06:34:59.456Z,3.60
2019-03-21T06:37:29.170Z,3.70
2019-03-21T06:39:58.572Z,3.80
2019-03-21T06:42:28.025Z,3.90
2019-03-21T06:45:00.352Z,3.90
2019-03-21T06:47:29.731Z,4.00
2019-03-21T06:49:59.146Z,4.20
2019-03-21T06:52:28.520Z,4.30
2019-03-21T06:54:59.855Z,4.40
2019-03-21T06:57:28.963Z,4.60
2019-03-21T06:59:58.481Z,4.70
2019-03-21T07:02:29.465Z,4.80
2019-03-21T07:04:58.852Z,4.90
2019-03-21T07:07:29.870Z,5.00
2019-03-21T07:09:59.270Z,5.10
2019-03-21T07:12:28.635Z,5.20
2019-03-21T07:14:57.992Z,5.30
2019-03-21T07:17:28.909Z,5.30
2019-03-21T07:19:58.262Z,5.30
2019-03-21T07:22:27.658Z,5.40
2019-03-21T07:24:57.093Z,5.50
2019-03-21T07:27:28.027Z,5.60
2019-03-21T07:29:58.471Z,5.80
2019-03-21T07:32:33.365Z,5.90
2019-03-21T07:34:59.064Z,5.90
2019-03-21T07:37:28.458Z,5.80
2019-03-21T07:39:58.127Z,5.80
2019-03-21T07:42:27.541Z,5.80
2019-03-21T07:44:58.521Z,5.90
2019-03-21T07:47:27.925Z,6.00
2019-03-21T07:49:57.313Z,6.00
2019-03-21T07:52:26.684Z,6.10
2019-03-21T07:54:56.084Z,6.20
2019-03-21T07:57:25.456Z,6.30
2019-03-21T07:59:56.377Z,6.30
2019-03-21T08:02:25.725Z,6.40
2019-03-21T08:04:55.284Z,6.50
2019-03-21T08:07:24.729Z,6.70
2019-03-21T08:09:54.107Z,6.90
2019-03-21T08:12:23.506Z,7.00
2019-03-21T08:14:52.873Z,7.20
2019-03-21T08:17:22.341Z,7.30
2019-03-21T08:19:51.730Z,7.40
2019-03-21T08:22:23.915Z,7.50
2019-03-21T08:24:53.291Z,7.60
2019-03-21T08:27:22.640Z,7.70
2019-03-21T08:29:52.015Z,7.80
2019-03-21T08:32:21.382Z,7.90
2019-03-21T08:34:50.750Z,8.00
2019-03-21T08:37:20.109Z,8.10
2019-03-21T08:39:51.024Z,8.20
2019-03-21T08:42:20.379Z,8.30
2019-03-21T08:44:49.823Z,8.50
2019-03-21T08:50:01.997Z,8.70
2019-03-21T08:52:31.453Z,8.70
2019-03-21T08:55:06.942Z,8.80
2019-03-21T08:57:36.302Z,9.00
2019-03-21T09:00:08.748Z,9.10
2019-03-21T09:02:38.136Z,9.30
2019-03-21T09:05:07.961Z,9.40
2019-03-21T09:07:37.343Z,9.50
2019-03-21T09:10:08.245Z,9.60
2019-03-21T09:12:37.744Z,9.80
2019-03-21T09:15:08.576Z,9.80
2019-03-21T09:17:37.976Z,9.90
2019-03-21T09:20:08.474Z,9.80
2019-03-21T09:22:37.909Z,9.90
2019-03-21T09:25:08.421Z,10.00
2019-03-21T09:27:37.829Z,10.10
2019-03-21T09:30:12.398Z,10.20
2019-03-21T09:32:41.791Z,10.30
2019-03-21T09:35:12.432Z,10.60
2019-03-21T09:37:42.106Z,10.80
2019-03-21T09:40:13.283Z,10.90
2019-03-21T09:42:42.765Z,11.10
2019-03-21T09:45:12.201Z,11.30
2019-03-21T09:47:41.579Z,11.50
2019-03-21T09:50:11.337Z,11.70
2019-03-21T09:52:40.628Z,11.80
2019-03-21T09:55:10.088Z,11.90
2019-03-21T09:57:39.466Z,12.10
2019-03-21T10:00:10.193Z,12.10
2019-03-21T10:02:39.563Z,12.10
2019-03-21T10:05:09.091Z,12.20
2019-03-21T10:07:38.458Z,12.20
2019-03-21T10:10:07.998Z,12.30
2019-03-21T10:12:37.378Z,12.20
2019-03-21T10:15:06.840Z,12.40
2019-03-21T10:17:36.147Z,12.60
2019-03-21T10:20:07.158Z,12.80
2019-03-21T10:22:36.517Z,12.90
2019-03-21T10:25:06.876Z,13.00
2019-03-21T10:27:36.233Z,13.10
2019-03-21T10:30:07.409Z,13.20
2019-03-21T10:32:36.781Z,13.30
2019-03-21T10:35:06.511Z,13.40
2019-03-21T10:37:35.965Z,13.40
2019-03-21T10:40:05.792Z,13.50
2019-03-21T10:42:35.189Z,13.80
2019-03-21T10:45:06.362Z,14.00
2019-03-21T10:47:35.760Z,14.10
2019-03-21T10:50:06.562Z,14.30
2019-03-21T10:52:35.953Z,14.60
2019-03-21T10:55:06.148Z,14.80
2019-03-21T10:57:35.568Z,15.00
2019-03-21T11:00:06.959Z,15.20
2019-03-21T11:02:36.319Z,15.30
2019-03-21T11:05:06.445Z,15.50
2019-03-21T11:07:35.814Z,15.80
2019-03-21T11:10:06.650Z,16.00
2019-03-21T11:12:36.023Z,17.20
2019-03-21T11:15:08.317Z,19.70
2019-03-21T11:17:37.674Z,21.60
2019-03-21T11:20:07.129Z,24.10
2019-03-21T11:22:36.457Z,25.30
2019-03-21T11:25:07.174Z,26.40
2019-03-21T11:27:36.579Z,27.70
2019-03-21T11:30:15.725Z,28.50
2019-03-21T11:32:38.162Z,28.30
2019-03-21T11:35:07.605Z,27.80
2019-03-21T11:37:37.001Z,28.10
2019-03-21T11:40:06.402Z,28.00
2019-03-21T11:42:35.782Z,28.30
2019-03-21T11:45:07.711Z,28.00
2019-03-21T11:47:41.778Z,26.80
2019-03-21T11:50:08.360Z,27.10
2019-03-21T11:52:37.888Z,26.80
2019-03-21T11:55:08.213Z,27.50
2019-03-21T11:57:37.633Z,26.70
2019-03-21T12:00:12.774Z,27.20
2019-03-21T12:02:42.136Z,27.10
2019-03-21T12:05:11.772Z,27.80
2019-03-21T12:07:41.208Z,28.30
2019-03-21T12:10:14.382Z,27.40
2019-03-21T12:12:43.851Z,27.00
2019-03-21T12:15:13.545Z,27.50
2019-03-21T12:17:43.544Z,27.60
2019-03-21T12:20:27.798Z,27.80
2019-03-21T12:22:58.139Z,29.10
2019-03-21T12:25:27.572Z,29.90
2019-03-21T12:27:57.008Z,30.80
2019-03-21T12:30:35.375Z,31.40
2019-03-21T12:33:05.576Z,32.00
2019-03-21T12:35:35.622Z,31.50
2019-03-21T12:38:05.879Z,30.90
2019-03-21T12:40:35.920Z,31.80
2019-03-21T12:43:06.232Z,31.80
2019-03-21T12:45:36.328Z,32.30
2019-03-21T12:48:06.361Z,33.20
2019-03-21T12:50:36.374Z,32.50
2019-03-21T12:53:06.505Z,32.70
2019-03-21T12:55:36.544Z,33.30
2019-03-21T12:58:06.560Z,33.40
2019-03-21T13:00:40.657Z,33.30
2019-03-21T13:03:10.737Z,33.60
2019-03-21T13:05:40.813Z,33.70
2019-03-21T13:08:10.803Z,33.50
2019-03-21T13:10:41.017Z,33.00
2019-03-21T13:13:11.146Z,32.90
2019-03-21T13:15:41.184Z,33.30
2019-03-21T13:18:11.306Z,33.70
2019-03-21T13:20:41.288Z,33.70
2019-03-21T13:23:11.251Z,33.40
2019-03-21T13:25:41.278Z,33.20
2019-03-21T13:28:11.238Z,33.80
2019-03-21T13:30:41.192Z,34.20
2019-03-21T13:33:11.162Z,34.30
2019-03-21T13:35:41.128Z,34.70
2019-03-21T13:38:11.068Z,34.20
2019-03-21T13:40:41.025Z,33.80
2019-03-21T13:43:11.373Z,34.50
2019-03-21T13:45:41.400Z,34.70
2019-03-21T13:48:11.452Z,34.90
2019-03-21T13:50:41.457Z,34.40
2019-03-21T13:53:19.018Z,34.00
2019-03-21T13:55:46.116Z,34.00
2019-03-21T13:58:18.080Z,34.90
2019-03-21T14:00:48.023Z,34.80
2019-03-21T14:03:25.081Z,34.90
2019-03-21T14:05:49.640Z,34.00
2019-03-21T14:08:19.697Z,33.70
2019-03-21T14:10:49.613Z,33.70
2019-03-21T14:13:21.569Z,34.70
2019-03-21T14:15:51.517Z,35.40
2019-03-21T14:18:21.575Z,35.30
2019-03-21T14:20:51.528Z,35.20
2019-03-21T14:23:21.228Z,35.30
2019-03-21T14:25:53.868Z,35.80
2019-03-21T14:28:23.854Z,36.00
2019-03-21T14:30:53.800Z,36.10
2019-03-21T14:33:23.800Z,36.70
2019-03-21T14:35:53.735Z,35.60
2019-03-21T14:38:26.363Z,35.50
2019-03-21T14:40:55.341Z,35.00
2019-03-21T14:43:25.294Z,34.70
2019-03-21T14:45:55.362Z,34.00
2019-03-21T14:48:25.406Z,34.50
2019-03-21T14:50:55.384Z,34.80
2019-03-21T14:53:29.174Z,35.00
2019-03-21T14:55:57.087Z,35.80
2019-03-21T14:58:27.066Z,35.60
2019-03-21T15:00:57.035Z,35.70
2019-03-21T15:03:26.667Z,35.90
2019-03-21T15:05:56.618Z,35.90
2019-03-21T15:08:28.235Z,35.90
2019-03-21T15:10:58.277Z,35.90
2019-03-21T15:13:28.398Z,35.70
2019-03-21T15:15:58.412Z,36.10
2019-03-21T15:18:28.379Z,35.60
2019-03-21T15:20:58.338Z,35.30
2019-03-21T15:23:39.851Z,35.40
2019-03-21T15:25:59.983Z,35.50
2019-03-21T15:28:30.033Z,34.90
2019-03-21T15:31:00.039Z,34.80
2019-03-21T15:33:30.050Z,34.40
2019-03-21T15:36:00.072Z,34.50
2019-03-21T15:38:30.044Z,34.80
2019-03-21T15:41:00.013Z,35.30
2019-03-21T15:43:29.997Z,35.00
2019-03-21T15:45:59.995Z,34.60
2019-03-21T15:48:29.960Z,33.70
2019-03-21T15:51:04.711Z,34.00
2019-03-21T15:53:31.558Z,33.10
2019-03-21T15:56:01.526Z,33.00
2019-03-21T15:58:33.662Z,33.20
2019-03-21T16:01:04.541Z,33.40
2019-03-21T16:03:34.512Z,33.30
2019-03-21T16:06:04.656Z,33.50
2019-03-21T16:08:34.819Z,33.10
2019-03-21T16:11:04.826Z,32.70
2019-03-21T16:13:34.798Z,32.70
2019-03-21T16:16:04.788Z,32.60
2019-03-21T16:18:34.757Z,31.90
2019-03-21T16:21:06.041Z,31.00
2019-03-21T16:23:36.237Z,28.60
2019-03-21T16:26:06.270Z,26.10
2019-03-21T16:31:31.810Z,22.50
2019-03-21T16:34:01.848Z,21.30
2019-03-21T16:39:27.259Z,19.90
2019-03-21T16:41:56.682Z,19.50
2019-03-21T16:44:26.149Z,19.20
2019-03-21T16:46:55.811Z,18.80
2019-03-21T16:49:25.538Z,18.60
2019-03-21T16:51:55.028Z,18.40
2019-03-21T16:54:24.427Z,18.30
2019-03-21T16:56:53.789Z,18.10
2019-03-21T16:59:23.199Z,18.00
2019-03-21T17:01:52.572Z,17.80
2019-03-21T17:04:21.973Z,17.70
2019-03-21T17:06:51.596Z,17.60
2019-03-21T17:09:21.091Z,17.40
2019-03-21T17:11:50.565Z,17.30
2019-03-21T17:14:20.949Z,17.10
2019-03-21T17:16:50.397Z,17.00
2019-03-21T17:19:19.794Z,16.90
2019-03-21T17:21:49.240Z,16.70
2019-03-21T17:24:28.860Z,16.50
2019-03-21T17:26:49.828Z,16.20
2019-03-21T17:29:19.303Z,16.00
2019-03-21T17:31:48.686Z,15.80
2019-03-21T17:34:18.077Z,15.60
2019-03-21T17:36:47.453Z,15.50
2019-03-21T17:39:16.841Z,15.40
2019-03-21T17:41:46.295Z,15.20
2019-03-21T17:44:15.671Z,15.10
2019-03-21T17:46:45.129Z,15.00
2019-03-21T17:49:14.553Z,14.80
2019-03-21T17:51:46.595Z,14.70
2019-03-21T17:54:15.038Z,14.50
2019-03-21T17:56:44.435Z,14.40
2019-03-21T17:59:13.922Z,14.30
2019-03-21T18:01:43.391Z,14.20
2019-03-21T18:04:13.003Z,14.00
2019-03-21T18:06:42.386Z,14.00
2019-03-21T18:09:11.762Z,13.90
2019-03-21T18:11:41.161Z,13.80
2019-03-21T18:14:10.588Z,13.80
2019-03-21T18:16:41.245Z,13.70
2019-03-21T18:19:10.652Z,13.50
2019-03-21T18:21:40.070Z,13.40
2019-03-21T18:24:11.120Z,13.40
2019-03-21T18:26:40.499Z,13.30
2019-03-21T18:29:10.002Z,13.20
2019-03-21T18:31:39.387Z,13.10
2019-03-21T18:34:08.765Z,13.10
2019-03-21T18:36:38.147Z,13.00
2019-03-21T18:39:08.103Z,12.80
2019-03-21T18:41:37.530Z,12.80
2019-03-21T18:44:07.004Z,12.60
2019-03-21T18:46:36.474Z,12.60
2019-03-21T18:49:05.779Z,12.50
2019-03-21T18:51:35.184Z,12.40
2019-03-21T18:54:04.671Z,12.40
2019-03-21T18:56:34.105Z,12.30
2019-03-21T18:59:03.506Z,12.30
2019-03-21T19:01:32.973Z,12.20
2019-03-21T19:04:02.508Z,12.20
2019-03-21T19:06:31.972Z,12.10
2019-03-21T19:09:01.442Z,12.00
2019-03-21T19:11:30.928Z,12.00
2019-03-21T19:14:01.903Z,11.90
2019-03-21T19:16:32.123Z,11.80
2019-03-21T19:19:01.579Z,11.70
2019-03-21T19:21:31.046Z,11.70
2019-03-21T19:24:00.503Z,11.70
2019-03-21T19:26:29.918Z,11.60
2019-03-21T19:28:59.292Z,11.50
2019-03-21T19:31:28.678Z,11.50
2019-03-21T19:33:58.065Z,11.40
2019-03-21T19:36:30.224Z,11.40
2019-03-21T19:38:59.611Z,11.40
2019-03-21T19:41:29.019Z,11.30
2019-03-21T19:43:58.512Z,11.30
2019-03-21T19:46:27.895Z,11.30
2019-03-21T19:48:58.956Z,11.20
2019-03-21T19:51:28.370Z,11.20
2019-03-21T19:53:57.846Z,11.10
2019-03-21T19:56:41.803Z,11.00
2019-03-21T19:59:11.660Z,11.10
2019-03-21T20:01:41.340Z,11.00
2019-03-21T20:04:10.807Z,11.00
2019-03-21T20:06:40.191Z,10.90
2019-03-21T20:09:10.491Z,10.90
2019-03-21T20:11:40.129Z,10.90
2019-03-21T20:14:09.901Z,10.90
2019-03-21T20:16:39.335Z,10.90
2019-03-21T20:19:08.751Z,10.90
2019-03-21T20:21:47.465Z,10.90
2019-03-21T20:24:10.846Z,10.90
2019-03-21T20:26:40.382Z,11.00
2019-03-21T20:29:09.801Z,10.80
2019-03-21T20:31:39.328Z,10.70
2019-03-21T20:34:08.899Z,10.80
2019-03-21T20:36:38.284Z,10.80
2019-03-21T20:39:08.768Z,10.80
2019-03-21T20:41:38.169Z,10.80
2019-03-21T20:44:15.205Z,10.80
2019-03-21T20:46:39.192Z,10.80
2019-03-21T20:49:09.029Z,10.70
2019-03-21T20:51:39.208Z,10.70
2019-03-21T20:54:08.626Z,10.70
2019-03-21T20:56:38.204Z,10.70
2019-03-21T20:59:07.588Z,10.70
2019-03-21T21:01:37.074Z,10.70
2019-03-21T21:04:06.442Z,10.70
2019-03-21T21:06:35.934Z,10.50
2019-03-21T21:09:07.122Z,10.40
2019-03-21T21:11:36.582Z,10.30
2019-03-21T21:14:06.861Z,10.20
2019-03-21T21:16:36.324Z,10.20
2019-03-21T21:19:05.794Z,10.20
2019-03-21T21:21:35.166Z,10.20
2019-03-21T21:24:04.763Z,10.20
2019-03-21T21:26:34.129Z,10.20
2019-03-21T21:29:03.586Z,10.20
2019-03-21T21:31:33.050Z,10.10
2019-03-21T21:34:02.460Z,10.10
2019-03-21T21:36:31.759Z,10.00
2019-03-21T21:39:02.772Z,10.00
2019-03-21T21:41:32.087Z,9.90
2019-03-21T21:44:01.604Z,9.90
2019-03-21T21:46:31.012Z,9.80
2019-03-21T21:49:00.423Z,9.70
2019-03-21T21:51:29.820Z,9.70
2019-03-21T21:53:59.325Z,9.60
2019-03-21T21:56:30.359Z,9.60
2019-03-21T21:58:59.723Z,9.50
2019-03-21T22:01:29.086Z,9.50
2019-03-21T22:04:04.605Z,9.50
2019-03-21T22:06:29.526Z,9.40
2019-03-21T22:08:58.906Z,9.30
2019-03-21T22:11:28.274Z,9.30
2019-03-21T22:13:57.694Z,9.20
2019-03-21T22:16:27.073Z,9.20
2019-03-21T22:18:56.456Z,9.20
2019-03-21T22:21:25.838Z,9.20
2019-03-21T22:23:55.202Z,9.10
2019-03-21T22:26:29.569Z,9.10
2019-03-21T22:28:55.717Z,9.10
2019-03-21T22:31:26.385Z,9.10
2019-03-21T22:33:55.792Z,9.00
2019-03-21T22:36:25.185Z,9.00
2019-03-21T22:38:54.549Z,9.00
2019-03-21T22:41:23.922Z,8.90
2019-03-21T22:43:53.299Z,8.90
2019-03-21T22:46:22.734Z,8.90
2019-03-21T22:48:52.145Z,8.80
2019-03-21T22:51:21.517Z,8.80
2019-03-21T22:53:50.826Z,8.70
2019-03-21T22:56:20.197Z,8.70
2019-03-21T22:58:51.252Z,8.60
2019-03-21T23:01:20.688Z,8.60
2019-03-21T23:03:50.075Z,8.60
2019-03-21T23:06:19.441Z,8.60
2019-03-21T23:08:48.813Z,8.50
2019-03-21T23:11:20.876Z,8.50
2019-03-21T23:13:50.261Z,8.50
2019-03-21T23:16:19.639Z,8.40
2019-03-21T23:18:49.012Z,8.30
2019-03-21T23:21:18.372Z,8.30
2019-03-21T23:23:47.743Z,8.20
2019-03-21T23:26:17.106Z,8.20
2019-03-21T23:28:46.526Z,8.20
2019-03-21T23:31:15.943Z,8.20
2019-03-21T23:33:45.312Z,8.20
2019-03-21T23:36:14.704Z,8.20
2019-03-21T23:38:44.100Z,8.20
2019-03-21T23:41:13.452Z,8.30
2019-03-21T23:43:42.846Z,8.30
2019-03-21T23:46:12.278Z,8.40
2019-03-21T23:48:41.647Z,8.30
2019-03-21T23:51:12.652Z,8.30
2019-03-21T23:53:42.027Z,8.20
2019-03-21T23:56:11.416Z,8.10
2019-03-21T23:58:40.789Z,8.10
